sensor_id;sensor_type;location;lat;lon;timestamp;P1;durP1;ratioP1;P2;durP2;ratioP2
20611;SDS011;10465;42.686;23.364;2023-05-21T00:02:15;12.45;;;9.57;;
20611;SDS011;10465;42.686;23.364;2023-05-21T00:04:42;13.20;;;9.85;;
20611;SDS011;10465;42.686;23.364;2023-05-21T00:07:08;11.10;;;8.85;;
20611;SDS011;10465;42.686;23.364;2023-05-21T00:09:35;16.50;;;9.77;;
20611;SDS011;10465;42.686;23.364;2023-05-21T00:12:05;14.85;;;10.30;;
20611;SDS011;10465;42.686;23.364;2023-05-21T00:14:34;13.82;;;9.73;;
20611;SDS011;10465;42.686;23.364;2023-05-21T00:16:59;13.60;;;9.73;;
20611;SDS011;10465;42.686;23.364;2023-05-21T00:19:25;13.38;;;9.90;;
20611;SDS011;10465;42.686;23.364;2023-05-21T00:21:51;13.32;;;9.73;;
20611;SDS011;10465;42.686;23.364;2023-05-21T00:24:17;14.90;;;9.63;;
20611;SDS011;10465;42.686;23.364;2023-05-21T00:26:42;17.05;;;9.90;;
20611;SDS011;10465;42.686;23.364;2023-05-21T00:29:07;17.60;;;10.75;;
20611;SDS011;10465;42.686;23.364;2023-05-21T00:31:33;16.00;;;10.98;;
20611;SDS011;10465;42.686;23.364;2023-05-21T00:33:58;19.23;;;11.07;;
20611;SDS011;10465;42.686;23.364;2023-05-21T00:36:24;16.02;;;11.65;;
20611;SDS011;10465;42.686;23.364;2023-05-21T00:38:50;17.60;;;11.93;;
20611;SDS011;10465;42.686;23.364;2023-05-21T00:41:15;17.48;;;12.63;;
20611;SDS011;10465;42.686;23.364;2023-05-21T00:43:41;21.90;;;15.18;;
20611;SDS011;10465;42.686;23.364;2023-05-21T00:46:12;21.60;;;13.50;;
20611;SDS011;10465;42.686;23.364;2023-05-21T00:48:45;18.88;;;12.48;;
20611;SDS011;10465;42.686;23.364;2023-05-21T00:51:15;23.52;;;13.40;;
20611;SDS011;10465;42.686;23.364;2023-05-21T00:53:43;20.33;;;13.20;;
20611;SDS011;10465;42.686;23.364;2023-05-21T00:56:09;20.05;;;13.85;;
20611;SDS011;10465;42.686;23.364;2023-05-21T00:58:35;19.52;;;14.15;;
20611;SDS011;10465;42.686;23.364;2023-05-21T01:01:03;19.40;;;15.00;;
20611;SDS011;10465;42.686;23.364;2023-05-21T01:03:31;16.98;;;13.13;;
20611;SDS011;10465;42.686;23.364;2023-05-21T01:06:06;19.67;;;13.20;;
20611;SDS011;10465;42.686;23.364;2023-05-21T01:08:32;17.08;;;12.27;;
20611;SDS011;10465;42.686;23.364;2023-05-21T01:11:00;16.58;;;13.30;;
20611;SDS011;10465;42.686;23.364;2023-05-21T01:13:27;16.55;;;12.80;;
20611;SDS011;10465;42.686;23.364;2023-05-21T01:15:54;17.27;;;12.60;;
20611;SDS011;10465;42.686;23.364;2023-05-21T01:18:22;14.57;;;11.85;;
20611;SDS011;10465;42.686;23.364;2023-05-21T01:20:47;15.90;;;11.70;;
20611;SDS011;10465;42.686;23.364;2023-05-21T01:23:17;17.10;;;12.45;;
20611;SDS011;10465;42.686;23.364;2023-05-21T01:25:44;15.05;;;11.40;;
20611;SDS011;10465;42.686;23.364;2023-05-21T01:28:11;14.82;;;11.43;;
20611;SDS011;10465;42.686;23.364;2023-05-21T01:30:38;18.95;;;12.68;;
20611;SDS011;10465;42.686;23.364;2023-05-21T01:33:12;17.02;;;12.80;;
20611;SDS011;10465;42.686;23.364;2023-05-21T01:35:58;16.73;;;12.65;;
20611;SDS011;10465;42.686;23.364;2023-05-21T01:38:36;18.60;;;12.80;;
20611;SDS011;10465;42.686;23.364;2023-05-21T01:41:07;16.90;;;12.75;;
20611;SDS011;10465;42.686;23.364;2023-05-21T01:43:37;19.83;;;13.32;;
20611;SDS011;10465;42.686;23.364;2023-05-21T01:46:03;20.98;;;13.05;;
20611;SDS011;10465;42.686;23.364;2023-05-21T01:48:31;18.17;;;13.27;;
20611;SDS011;10465;42.686;23.364;2023-05-21T01:51:02;14.68;;;11.68;;
20611;SDS011;10465;42.686;23.364;2023-05-21T01:53:29;17.05;;;13.00;;
20611;SDS011;10465;42.686;23.364;2023-05-21T01:55:54;19.48;;;13.60;;
20611;SDS011;10465;42.686;23.364;2023-05-21T01:58:20;17.90;;;13.75;;
20611;SDS011;10465;42.686;23.364;2023-05-21T02:00:46;16.33;;;12.52;;
20611;SDS011;10465;42.686;23.364;2023-05-21T02:03:15;17.38;;;12.43;;
20611;SDS011;10465;42.686;23.364;2023-05-21T02:05:41;14.95;;;11.70;;
20611;SDS011;10465;42.686;23.364;2023-05-21T02:08:06;13.60;;;11.88;;
20611;SDS011;10465;42.686;23.364;2023-05-21T02:10:35;17.05;;;13.18;;
20611;SDS011;10465;42.686;23.364;2023-05-21T02:13:00;17.42;;;11.38;;
20611;SDS011;10465;42.686;23.364;2023-05-21T02:15:26;17.27;;;12.52;;
20611;SDS011;10465;42.686;23.364;2023-05-21T02:17:52;15.65;;;12.27;;
20611;SDS011;10465;42.686;23.364;2023-05-21T02:20:18;15.10;;;11.68;;
20611;SDS011;10465;42.686;23.364;2023-05-21T02:22:45;14.60;;;11.80;;
20611;SDS011;10465;42.686;23.364;2023-05-21T02:25:13;15.38;;;11.77;;
20611;SDS011;10465;42.686;23.364;2023-05-21T02:27:39;14.85;;;11.60;;
20611;SDS011;10465;42.686;23.364;2023-05-21T02:30:07;13.07;;;10.45;;
20611;SDS011;10465;42.686;23.364;2023-05-21T02:32:34;14.00;;;11.02;;
20611;SDS011;10465;42.686;23.364;2023-05-21T02:35:00;17.08;;;11.40;;
20611;SDS011;10465;42.686;23.364;2023-05-21T02:37:27;16.33;;;11.23;;
20611;SDS011;10465;42.686;23.364;2023-05-21T02:39:54;16.85;;;11.23;;
20611;SDS011;10465;42.686;23.364;2023-05-21T02:42:23;16.48;;;10.90;;
20611;SDS011;10465;42.686;23.364;2023-05-21T02:44:49;14.35;;;10.77;;
20611;SDS011;10465;42.686;23.364;2023-05-21T02:47:15;15.88;;;11.15;;
20611;SDS011;10465;42.686;23.364;2023-05-21T02:49:41;15.75;;;10.98;;
20611;SDS011;10465;42.686;23.364;2023-05-21T02:52:07;14.50;;;10.60;;
20611;SDS011;10465;42.686;23.364;2023-05-21T02:54:32;14.65;;;11.18;;
20611;SDS011;10465;42.686;23.364;2023-05-21T02:56:58;15.95;;;11.65;;
20611;SDS011;10465;42.686;23.364;2023-05-21T02:59:23;15.18;;;11.48;;
20611;SDS011;10465;42.686;23.364;2023-05-21T03:01:49;14.60;;;10.77;;
20611;SDS011;10465;42.686;23.364;2023-05-21T03:04:14;17.20;;;11.13;;
20611;SDS011;10465;42.686;23.364;2023-05-21T03:06:41;15.85;;;11.85;;
20611;SDS011;10465;42.686;23.364;2023-05-21T03:09:07;17.95;;;11.07;;
20611;SDS011;10465;42.686;23.364;2023-05-21T03:11:33;16.77;;;11.20;;
20611;SDS011;10465;42.686;23.364;2023-05-21T03:13:58;15.52;;;10.27;;
20611;SDS011;10465;42.686;23.364;2023-05-21T03:16:23;15.13;;;11.00;;
20611;SDS011;10465;42.686;23.364;2023-05-21T03:18:49;15.18;;;10.65;;
20611;SDS011;10465;42.686;23.364;2023-05-21T03:21:14;15.73;;;11.13;;
20611;SDS011;10465;42.686;23.364;2023-05-21T03:23:40;14.07;;;10.77;;
20611;SDS011;10465;42.686;23.364;2023-05-21T03:26:06;17.42;;;11.20;;
20611;SDS011;10465;42.686;23.364;2023-05-21T03:28:32;14.35;;;10.75;;
20611;SDS011;10465;42.686;23.364;2023-05-21T03:30:59;17.00;;;12.00;;
20611;SDS011;10465;42.686;23.364;2023-05-21T03:33:25;16.23;;;10.98;;
20611;SDS011;10465;42.686;23.364;2023-05-21T03:35:50;15.75;;;10.38;;
20611;SDS011;10465;42.686;23.364;2023-05-21T03:38:16;13.75;;;10.80;;
20611;SDS011;10465;42.686;23.364;2023-05-21T03:40:41;13.55;;;10.60;;
20611;SDS011;10465;42.686;23.364;2023-05-21T03:43:07;14.77;;;10.50;;
20611;SDS011;10465;42.686;23.364;2023-05-21T03:45:32;12.88;;;9.77;;
20611;SDS011;10465;42.686;23.364;2023-05-21T03:47:58;16.50;;;10.50;;
20611;SDS011;10465;42.686;23.364;2023-05-21T03:50:23;14.70;;;10.73;;
20611;SDS011;10465;42.686;23.364;2023-05-21T03:52:49;13.63;;;9.80;;
20611;SDS011;10465;42.686;23.364;2023-05-21T03:55:14;13.25;;;10.18;;
20611;SDS011;10465;42.686;23.364;2023-05-21T03:57:40;14.68;;;10.18;;
20611;SDS011;10465;42.686;23.364;2023-05-21T04:00:06;15.15;;;10.60;;
20611;SDS011;10465;42.686;23.364;2023-05-21T04:02:33;14.15;;;10.30;;
20611;SDS011;10465;42.686;23.364;2023-05-21T04:04:58;16.02;;;10.27;;
20611;SDS011;10465;42.686;23.364;2023-05-21T04:07:24;13.40;;;9.77;;
20611;SDS011;10465;42.686;23.364;2023-05-21T04:09:51;13.48;;;10.18;;
20611;SDS011;10465;42.686;23.364;2023-05-21T04:12:16;13.32;;;10.10;;
20611;SDS011;10465;42.686;23.364;2023-05-21T04:14:44;15.57;;;10.50;;
20611;SDS011;10465;42.686;23.364;2023-05-21T04:17:10;15.07;;;10.23;;
20611;SDS011;10465;42.686;23.364;2023-05-21T04:19:39;15.68;;;10.68;;
20611;SDS011;10465;42.686;23.364;2023-05-21T04:22:04;18.52;;;12.18;;
20611;SDS011;10465;42.686;23.364;2023-05-21T04:24:30;15.95;;;12.18;;
20611;SDS011;10465;42.686;23.364;2023-05-21T04:26:56;16.55;;;11.90;;
20611;SDS011;10465;42.686;23.364;2023-05-21T04:29:28;15.63;;;11.00;;
20611;SDS011;10465;42.686;23.364;2023-05-21T04:31:55;13.73;;;10.88;;
20611;SDS011;10465;42.686;23.364;2023-05-21T04:34:20;16.88;;;10.15;;
20611;SDS011;10465;42.686;23.364;2023-05-21T04:36:46;13.88;;;10.45;;
20611;SDS011;10465;42.686;23.364;2023-05-21T04:39:12;14.15;;;9.40;;
20611;SDS011;10465;42.686;23.364;2023-05-21T04:41:38;14.43;;;10.60;;
20611;SDS011;10465;42.686;23.364;2023-05-21T04:44:08;14.38;;;9.63;;
20611;SDS011;10465;42.686;23.364;2023-05-21T04:46:34;15.02;;;10.38;;
20611;SDS011;10465;42.686;23.364;2023-05-21T04:49:00;15.10;;;9.55;;
20611;SDS011;10465;42.686;23.364;2023-05-21T04:51:27;14.57;;;10.10;;
20611;SDS011;10465;42.686;23.364;2023-05-21T04:53:52;14.77;;;10.63;;
20611;SDS011;10465;42.686;23.364;2023-05-21T04:56:18;13.52;;;10.93;;
20611;SDS011;10465;42.686;23.364;2023-05-21T04:58:44;14.32;;;10.38;;
20611;SDS011;10465;42.686;23.364;2023-05-21T05:01:11;13.20;;;10.32;;
20611;SDS011;10465;42.686;23.364;2023-05-21T05:03:37;18.13;;;11.13;;
20611;SDS011;10465;42.686;23.364;2023-05-21T05:06:03;12.63;;;9.98;;
20611;SDS011;10465;42.686;23.364;2023-05-21T05:08:28;14.95;;;9.35;;
20611;SDS011;10465;42.686;23.364;2023-05-21T05:10:54;14.05;;;10.63;;
20611;SDS011;10465;42.686;23.364;2023-05-21T05:13:20;16.75;;;9.98;;
20611;SDS011;10465;42.686;23.364;2023-05-21T05:15:45;12.70;;;10.38;;
20611;SDS011;10465;42.686;23.364;2023-05-21T05:18:11;15.38;;;9.70;;
20611;SDS011;10465;42.686;23.364;2023-05-21T05:20:37;13.80;;;9.90;;
20611;SDS011;10465;42.686;23.364;2023-05-21T05:23:02;17.50;;;10.48;;
20611;SDS011;10465;42.686;23.364;2023-05-21T05:25:28;14.25;;;10.45;;
20611;SDS011;10465;42.686;23.364;2023-05-21T05:27:53;15.27;;;10.07;;
20611;SDS011;10465;42.686;23.364;2023-05-21T05:30:19;14.15;;;10.27;;
20611;SDS011;10465;42.686;23.364;2023-05-21T05:32:45;12.93;;;9.75;;
20611;SDS011;10465;42.686;23.364;2023-05-21T05:35:10;13.95;;;9.98;;
20611;SDS011;10465;42.686;23.364;2023-05-21T05:37:36;13.88;;;9.45;;
20611;SDS011;10465;42.686;23.364;2023-05-21T05:40:03;17.13;;;10.48;;
20611;SDS011;10465;42.686;23.364;2023-05-21T05:42:29;15.05;;;10.68;;
20611;SDS011;10465;42.686;23.364;2023-05-21T05:44:55;18.77;;;11.82;;
20611;SDS011;10465;42.686;23.364;2023-05-21T05:47:21;14.30;;;10.70;;
20611;SDS011;10465;42.686;23.364;2023-05-21T05:49:46;18.80;;;11.63;;
20611;SDS011;10465;42.686;23.364;2023-05-21T05:52:12;15.07;;;11.45;;
20611;SDS011;10465;42.686;23.364;2023-05-21T05:54:37;17.48;;;11.30;;
20611;SDS011;10465;42.686;23.364;2023-05-21T05:57:03;20.88;;;11.68;;
20611;SDS011;10465;42.686;23.364;2023-05-21T05:59:28;17.20;;;11.40;;
20611;SDS011;10465;42.686;23.364;2023-05-21T06:01:54;16.98;;;11.15;;
20611;SDS011;10465;42.686;23.364;2023-05-21T06:04:20;17.17;;;11.25;;
20611;SDS011;10465;42.686;23.364;2023-05-21T06:06:45;16.65;;;10.23;;
20611;SDS011;10465;42.686;23.364;2023-05-21T06:09:12;16.55;;;9.50;;
20611;SDS011;10465;42.686;23.364;2023-05-21T06:11:37;15.32;;;9.60;;
20611;SDS011;10465;42.686;23.364;2023-05-21T06:14:02;15.45;;;10.05;;
20611;SDS011;10465;42.686;23.364;2023-05-21T06:16:28;16.17;;;10.38;;
20611;SDS011;10465;42.686;23.364;2023-05-21T06:18:56;17.58;;;10.88;;
20611;SDS011;10465;42.686;23.364;2023-05-21T06:21:22;14.88;;;9.02;;
20611;SDS011;10465;42.686;23.364;2023-05-21T06:23:47;15.52;;;9.50;;
20611;SDS011;10465;42.686;23.364;2023-05-21T06:26:12;14.77;;;8.60;;
20611;SDS011;10465;42.686;23.364;2023-05-21T06:28:38;12.48;;;7.88;;
20611;SDS011;10465;42.686;23.364;2023-05-21T06:31:03;12.63;;;7.90;;
20611;SDS011;10465;42.686;23.364;2023-05-21T06:33:29;11.45;;;7.53;;
20611;SDS011;10465;42.686;23.364;2023-05-21T06:35:54;11.93;;;8.07;;
20611;SDS011;10465;42.686;23.364;2023-05-21T06:38:20;12.00;;;7.75;;
20611;SDS011;10465;42.686;23.364;2023-05-21T06:40:45;12.05;;;7.55;;
20611;SDS011;10465;42.686;23.364;2023-05-21T06:43:12;13.13;;;7.78;;
20611;SDS011;10465;42.686;23.364;2023-05-21T06:45:38;13.38;;;8.95;;
20611;SDS011;10465;42.686;23.364;2023-05-21T06:48:04;14.43;;;8.60;;
20611;SDS011;10465;42.686;23.364;2023-05-21T06:50:29;14.15;;;9.70;;
20611;SDS011;10465;42.686;23.364;2023-05-21T06:52:55;11.05;;;7.78;;
20611;SDS011;10465;42.686;23.364;2023-05-21T06:55:21;13.60;;;7.80;;
20611;SDS011;10465;42.686;23.364;2023-05-21T06:57:46;13.20;;;7.88;;
20611;SDS011;10465;42.686;23.364;2023-05-21T07:00:12;11.18;;;8.32;;
20611;SDS011;10465;42.686;23.364;2023-05-21T07:02:38;13.50;;;9.80;;
20611;SDS011;10465;42.686;23.364;2023-05-21T07:05:03;12.07;;;7.35;;
20611;SDS011;10465;42.686;23.364;2023-05-21T07:07:29;13.38;;;9.88;;
20611;SDS011;10465;42.686;23.364;2023-05-21T07:09:54;10.57;;;7.63;;
20611;SDS011;10465;42.686;23.364;2023-05-21T07:12:20;11.63;;;7.80;;
20611;SDS011;10465;42.686;23.364;2023-05-21T07:14:45;11.57;;;7.35;;
20611;SDS011;10465;42.686;23.364;2023-05-21T07:17:11;15.68;;;7.38;;
20611;SDS011;10465;42.686;23.364;2023-05-21T07:19:36;9.20;;;7.50;;
20611;SDS011;10465;42.686;23.364;2023-05-21T07:22:02;9.02;;;7.13;;
20611;SDS011;10465;42.686;23.364;2023-05-21T07:24:29;10.80;;;8.10;;
20611;SDS011;10465;42.686;23.364;2023-05-21T07:26:54;12.85;;;8.60;;
20611;SDS011;10465;42.686;23.364;2023-05-21T07:29:20;10.30;;;7.78;;
20611;SDS011;10465;42.686;23.364;2023-05-21T07:31:46;10.43;;;7.00;;
20611;SDS011;10465;42.686;23.364;2023-05-21T07:34:11;11.57;;;7.38;;
20611;SDS011;10465;42.686;23.364;2023-05-21T07:36:37;9.55;;;7.07;;
20611;SDS011;10465;42.686;23.364;2023-05-21T07:39:02;13.20;;;7.35;;
20611;SDS011;10465;42.686;23.364;2023-05-21T07:41:28;14.18;;;7.43;;
20611;SDS011;10465;42.686;23.364;2023-05-21T07:43:54;8.02;;;5.63;;
20611;SDS011;10465;42.686;23.364;2023-05-21T07:46:20;9.40;;;5.90;;
20611;SDS011;10465;42.686;23.364;2023-05-21T07:48:45;10.65;;;5.97;;
20611;SDS011;10465;42.686;23.364;2023-05-21T07:51:12;6.18;;;4.75;;
20611;SDS011;10465;42.686;23.364;2023-05-21T07:53:38;6.97;;;4.75;;
20611;SDS011;10465;42.686;23.364;2023-05-21T07:56:03;6.90;;;4.72;;
20611;SDS011;10465;42.686;23.364;2023-05-21T07:58:29;6.13;;;4.30;;
20611;SDS011;10465;42.686;23.364;2023-05-21T08:00:55;7.75;;;4.57;;
20611;SDS011;10465;42.686;23.364;2023-05-21T08:03:21;11.70;;;4.40;;
20611;SDS011;10465;42.686;23.364;2023-05-21T08:05:47;7.57;;;4.55;;
20611;SDS011;10465;42.686;23.364;2023-05-21T08:08:16;6.53;;;4.13;;
20611;SDS011;10465;42.686;23.364;2023-05-21T08:10:42;6.88;;;4.10;;
20611;SDS011;10465;42.686;23.364;2023-05-21T08:13:09;6.78;;;4.05;;
20611;SDS011;10465;42.686;23.364;2023-05-21T08:15:36;10.27;;;4.35;;
20611;SDS011;10465;42.686;23.364;2023-05-21T08:18:01;8.20;;;4.25;;
20611;SDS011;10465;42.686;23.364;2023-05-21T08:20:27;6.30;;;4.20;;
20611;SDS011;10465;42.686;23.364;2023-05-21T08:22:53;7.18;;;3.80;;
20611;SDS011;10465;42.686;23.364;2023-05-21T08:25:18;5.18;;;4.10;;
20611;SDS011;10465;42.686;23.364;2023-05-21T08:27:44;9.30;;;4.28;;
20611;SDS011;10465;42.686;23.364;2023-05-21T08:30:09;6.57;;;4.13;;
20611;SDS011;10465;42.686;23.364;2023-05-21T08:32:35;6.60;;;4.38;;
20611;SDS011;10465;42.686;23.364;2023-05-21T08:35:01;9.18;;;4.18;;
20611;SDS011;10465;42.686;23.364;2023-05-21T08:37:27;8.68;;;5.07;;
20611;SDS011;10465;42.686;23.364;2023-05-21T08:39:53;6.95;;;4.20;;
20611;SDS011;10465;42.686;23.364;2023-05-21T08:45:06;10.18;;;4.20;;
20611;SDS011;10465;42.686;23.364;2023-05-21T08:47:34;8.23;;;4.15;;
20611;SDS011;10465;42.686;23.364;2023-05-21T08:50:03;7.43;;;5.65;;
20611;SDS011;10465;42.686;23.364;2023-05-21T08:52:33;6.47;;;4.32;;
20611;SDS011;10465;42.686;23.364;2023-05-21T08:54:59;6.63;;;4.32;;
20611;SDS011;10465;42.686;23.364;2023-05-21T08:57:25;15.55;;;8.05;;
20611;SDS011;10465;42.686;23.364;2023-05-21T08:59:52;9.55;;;5.25;;
20611;SDS011;10465;42.686;23.364;2023-05-21T09:02:18;11.35;;;5.28;;
20611;SDS011;10465;42.686;23.364;2023-05-21T09:04:44;19.70;;;13.02;;
20611;SDS011;10465;42.686;23.364;2023-05-21T09:07:13;6.88;;;4.60;;
20611;SDS011;10465;42.686;23.364;2023-05-21T09:10:01;8.15;;;4.70;;
20611;SDS011;10465;42.686;23.364;2023-05-21T09:12:30;7.97;;;5.32;;
20611;SDS011;10465;42.686;23.364;2023-05-21T09:14:56;11.57;;;6.82;;
20611;SDS011;10465;42.686;23.364;2023-05-21T09:17:22;13.65;;;7.10;;
20611;SDS011;10465;42.686;23.364;2023-05-21T09:20:05;11.32;;;6.05;;
20611;SDS011;10465;42.686;23.364;2023-05-21T09:22:35;9.32;;;5.15;;
20611;SDS011;10465;42.686;23.364;2023-05-21T09:25:05;12.10;;;7.13;;
20611;SDS011;10465;42.686;23.364;2023-05-21T09:27:32;11.93;;;7.25;;
20611;SDS011;10465;42.686;23.364;2023-05-21T09:29:58;11.23;;;6.43;;
20611;SDS011;10465;42.686;23.364;2023-05-21T09:32:23;12.57;;;4.60;;
20611;SDS011;10465;42.686;23.364;2023-05-21T09:34:49;9.93;;;4.80;;
20611;SDS011;10465;42.686;23.364;2023-05-21T09:37:14;5.80;;;4.10;;
20611;SDS011;10465;42.686;23.364;2023-05-21T09:39:40;8.43;;;4.13;;
20611;SDS011;10465;42.686;23.364;2023-05-21T09:42:07;6.10;;;4.30;;
20611;SDS011;10465;42.686;23.364;2023-05-21T09:44:33;5.18;;;3.90;;
20611;SDS011;10465;42.686;23.364;2023-05-21T09:46:59;4.97;;;3.65;;
20611;SDS011;10465;42.686;23.364;2023-05-21T09:49:26;5.57;;;3.33;;
20611;SDS011;10465;42.686;23.364;2023-05-21T09:51:58;7.93;;;3.92;;
20611;SDS011;10465;42.686;23.364;2023-05-21T09:54:24;7.70;;;4.60;;
20611;SDS011;10465;42.686;23.364;2023-05-21T09:56:54;6.50;;;3.58;;
20611;SDS011;10465;42.686;23.364;2023-05-21T09:59:20;5.63;;;4.05;;
20611;SDS011;10465;42.686;23.364;2023-05-21T10:01:46;7.18;;;3.95;;
20611;SDS011;10465;42.686;23.364;2023-05-21T10:04:15;6.18;;;3.55;;
20611;SDS011;10465;42.686;23.364;2023-05-21T10:06:41;7.15;;;3.70;;
20611;SDS011;10465;42.686;23.364;2023-05-21T10:09:08;8.07;;;3.95;;
20611;SDS011;10465;42.686;23.364;2023-05-21T10:11:35;5.72;;;3.80;;
20611;SDS011;10465;42.686;23.364;2023-05-21T10:14:04;9.23;;;3.65;;
20611;SDS011;10465;42.686;23.364;2023-05-21T10:16:33;9.85;;;3.90;;
20611;SDS011;10465;42.686;23.364;2023-05-21T10:19:00;6.68;;;3.63;;
20611;SDS011;10465;42.686;23.364;2023-05-21T10:21:26;5.85;;;3.60;;
20611;SDS011;10465;42.686;23.364;2023-05-21T10:23:52;6.18;;;4.70;;
20611;SDS011;10465;42.686;23.364;2023-05-21T10:26:22;7.43;;;3.85;;
20611;SDS011;10465;42.686;23.364;2023-05-21T10:28:50;6.25;;;3.60;;
20611;SDS011;10465;42.686;23.364;2023-05-21T10:31:16;5.78;;;3.80;;
20611;SDS011;10465;42.686;23.364;2023-05-21T10:33:42;6.72;;;3.92;;
20611;SDS011;10465;42.686;23.364;2023-05-21T10:36:07;7.90;;;4.60;;
20611;SDS011;10465;42.686;23.364;2023-05-21T10:38:34;6.82;;;4.38;;
20611;SDS011;10465;42.686;23.364;2023-05-21T10:41:01;5.43;;;4.00;;
20611;SDS011;10465;42.686;23.364;2023-05-21T10:51:27;7.35;;;4.22;;
20611;SDS011;10465;42.686;23.364;2023-05-21T10:54:07;7.43;;;4.32;;
20611;SDS011;10465;42.686;23.364;2023-05-21T10:59:41;10.60;;;4.93;;
20611;SDS011;10465;42.686;23.364;2023-05-21T11:02:08;9.30;;;4.70;;
20611;SDS011;10465;42.686;23.364;2023-05-21T11:04:36;8.75;;;4.45;;
20611;SDS011;10465;42.686;23.364;2023-05-21T11:07:04;10.85;;;5.28;;
20611;SDS011;10465;42.686;23.364;2023-05-21T11:09:30;6.57;;;4.22;;
20611;SDS011;10465;42.686;23.364;2023-05-21T11:11:56;7.82;;;4.65;;
20611;SDS011;10465;42.686;23.364;2023-05-21T11:14:38;10.25;;;4.68;;
20611;SDS011;10465;42.686;23.364;2023-05-21T11:19:33;6.50;;;4.20;;
20611;SDS011;10465;42.686;23.364;2023-05-21T11:22:06;7.30;;;4.22;;
20611;SDS011;10465;42.686;23.364;2023-05-21T11:24:45;8.80;;;4.57;;
20611;SDS011;10465;42.686;23.364;2023-05-21T11:27:11;7.53;;;4.00;;
20611;SDS011;10465;42.686;23.364;2023-05-21T11:29:40;7.72;;;4.18;;
20611;SDS011;10465;42.686;23.364;2023-05-21T11:32:08;9.75;;;4.53;;
20611;SDS011;10465;42.686;23.364;2023-05-21T11:34:54;9.00;;;4.90;;
20611;SDS011;10465;42.686;23.364;2023-05-21T11:37:25;8.85;;;4.60;;
20611;SDS011;10465;42.686;23.364;2023-05-21T11:39:53;8.05;;;4.18;;
20611;SDS011;10465;42.686;23.364;2023-05-21T11:44:55;10.10;;;4.70;;
20611;SDS011;10465;42.686;23.364;2023-05-21T11:47:23;8.25;;;4.20;;
20611;SDS011;10465;42.686;23.364;2023-05-21T11:49:52;6.95;;;4.20;;
20611;SDS011;10465;42.686;23.364;2023-05-21T11:52:18;7.50;;;4.00;;
20611;SDS011;10465;42.686;23.364;2023-05-21T11:54:45;6.47;;;4.68;;
20611;SDS011;10465;42.686;23.364;2023-05-21T11:57:14;9.68;;;4.65;;
20611;SDS011;10465;42.686;23.364;2023-05-21T11:59:41;7.93;;;4.43;;
20611;SDS011;10465;42.686;23.364;2023-05-21T12:02:07;6.93;;;4.43;;
20611;SDS011;10465;42.686;23.364;2023-05-21T12:04:33;11.88;;;5.07;;
20611;SDS011;10465;42.686;23.364;2023-05-21T12:07:07;8.13;;;4.85;;
20611;SDS011;10465;42.686;23.364;2023-05-21T12:12:08;7.55;;;5.07;;
20611;SDS011;10465;42.686;23.364;2023-05-21T12:14:37;7.20;;;4.47;;
20611;SDS011;10465;42.686;23.364;2023-05-21T12:17:03;10.20;;;4.25;;
20611;SDS011;10465;42.686;23.364;2023-05-21T12:19:33;9.43;;;4.50;;
20611;SDS011;10465;42.686;23.364;2023-05-21T12:22:00;9.73;;;5.28;;
20611;SDS011;10465;42.686;23.364;2023-05-21T12:24:29;11.38;;;5.38;;
20611;SDS011;10465;42.686;23.364;2023-05-21T12:26:58;8.38;;;4.30;;
20611;SDS011;10465;42.686;23.364;2023-05-21T12:29:35;6.43;;;4.40;;
20611;SDS011;10465;42.686;23.364;2023-05-21T12:32:02;4.90;;;4.10;;
20611;SDS011;10465;42.686;23.364;2023-05-21T12:34:40;7.25;;;4.85;;
20611;SDS011;10465;42.686;23.364;2023-05-21T12:37:09;7.35;;;4.88;;
20611;SDS011;10465;42.686;23.364;2023-05-21T12:39:43;6.18;;;3.95;;
20611;SDS011;10465;42.686;23.364;2023-05-21T12:42:11;7.70;;;5.13;;
20611;SDS011;10465;42.686;23.364;2023-05-21T12:44:45;10.25;;;4.65;;
20611;SDS011;10465;42.686;23.364;2023-05-21T12:47:12;7.57;;;4.40;;
20611;SDS011;10465;42.686;23.364;2023-05-21T12:49:41;6.45;;;4.60;;
20611;SDS011;10465;42.686;23.364;2023-05-21T12:52:16;9.07;;;4.97;;
20611;SDS011;10465;42.686;23.364;2023-05-21T12:54:44;5.32;;;4.43;;
20611;SDS011;10465;42.686;23.364;2023-05-21T12:57:20;10.77;;;4.30;;
20611;SDS011;10465;42.686;23.364;2023-05-21T13:00:05;8.90;;;4.93;;
20611;SDS011;10465;42.686;23.364;2023-05-21T13:02:33;8.27;;;4.55;;
20611;SDS011;10465;42.686;23.364;2023-05-21T13:05:06;8.73;;;4.95;;
20611;SDS011;10465;42.686;23.364;2023-05-21T13:07:33;6.55;;;4.70;;
20611;SDS011;10465;42.686;23.364;2023-05-21T13:10:00;8.88;;;4.70;;
20611;SDS011;10465;42.686;23.364;2023-05-21T13:12:27;10.95;;;4.97;;
20611;SDS011;10465;42.686;23.364;2023-05-21T13:14:54;10.63;;;5.43;;
20611;SDS011;10465;42.686;23.364;2023-05-21T13:17:21;7.10;;;4.80;;
20611;SDS011;10465;42.686;23.364;2023-05-21T13:22:36;9.90;;;4.78;;
20611;SDS011;10465;42.686;23.364;2023-05-21T13:25:06;8.30;;;4.80;;
20611;SDS011;10465;42.686;23.364;2023-05-21T13:27:32;11.18;;;5.10;;
20611;SDS011;10465;42.686;23.364;2023-05-21T13:29:58;9.48;;;5.47;;
20611;SDS011;10465;42.686;23.364;2023-05-21T13:32:23;9.95;;;5.20;;
20611;SDS011;10465;42.686;23.364;2023-05-21T13:34:48;7.75;;;4.85;;
20611;SDS011;10465;42.686;23.364;2023-05-21T13:37:14;8.45;;;5.28;;
20611;SDS011;10465;42.686;23.364;2023-05-21T13:39:39;12.77;;;6.07;;
20611;SDS011;10465;42.686;23.364;2023-05-21T13:42:05;12.98;;;6.35;;
20611;SDS011;10465;42.686;23.364;2023-05-21T13:44:31;10.75;;;5.80;;
20611;SDS011;10465;42.686;23.364;2023-05-21T13:47:02;9.77;;;5.50;;
20611;SDS011;10465;42.686;23.364;2023-05-21T13:49:28;13.38;;;5.75;;
20611;SDS011;10465;42.686;23.364;2023-05-21T13:51:54;9.98;;;6.00;;
20611;SDS011;10465;42.686;23.364;2023-05-21T13:54:19;9.80;;;5.35;;
20611;SDS011;10465;42.686;23.364;2023-05-21T13:56:45;8.65;;;5.13;;
20611;SDS011;10465;42.686;23.364;2023-05-21T13:59:11;10.00;;;6.72;;
20611;SDS011;10465;42.686;23.364;2023-05-21T14:01:36;11.52;;;6.05;;
20611;SDS011;10465;42.686;23.364;2023-05-21T14:04:02;10.15;;;5.47;;
20611;SDS011;10465;42.686;23.364;2023-05-21T14:06:32;11.20;;;5.60;;
20611;SDS011;10465;42.686;23.364;2023-05-21T14:08:58;7.03;;;4.88;;
20611;SDS011;10465;42.686;23.364;2023-05-21T14:11:23;11.65;;;5.30;;
20611;SDS011;10465;42.686;23.364;2023-05-21T14:13:50;10.38;;;5.32;;
20611;SDS011;10465;42.686;23.364;2023-05-21T14:16:15;9.10;;;5.38;;
20611;SDS011;10465;42.686;23.364;2023-05-21T14:18:40;7.68;;;5.70;;
20611;SDS011;10465;42.686;23.364;2023-05-21T14:21:06;8.25;;;5.00;;
20611;SDS011;10465;42.686;23.364;2023-05-21T14:23:32;10.85;;;5.80;;
20611;SDS011;10465;42.686;23.364;2023-05-21T14:25:57;13.38;;;6.22;;
20611;SDS011;10465;42.686;23.364;2023-05-21T14:28:23;11.02;;;6.03;;
20611;SDS011;10465;42.686;23.364;2023-05-21T14:30:48;7.97;;;5.80;;
20611;SDS011;10465;42.686;23.364;2023-05-21T14:33:14;11.15;;;5.95;;
20611;SDS011;10465;42.686;23.364;2023-05-21T14:35:40;8.95;;;5.65;;
20611;SDS011;10465;42.686;23.364;2023-05-21T14:38:07;9.02;;;5.18;;
20611;SDS011;10465;42.686;23.364;2023-05-21T14:40:33;10.85;;;5.93;;
20611;SDS011;10465;42.686;23.364;2023-05-21T14:42:58;11.23;;;6.30;;
20611;SDS011;10465;42.686;23.364;2023-05-21T14:45:24;8.02;;;5.82;;